sensor_id;sensor_type;location;lat;lon;timestamp;temperature;humidity
28177;DHT22;15461;41.652;9.378;2023-07-29T00:00:57;21.40;99.90
28177;DHT22;15461;41.652;9.378;2023-07-29T00:03:23;21.40;99.90
28177;DHT22;15461;41.652;9.378;2023-07-29T00:05:49;21.40;99.90
28177;DHT22;15461;41.652;9.378;2023-07-29T00:08:15;21.30;99.90
28177;DHT22;15461;41.652;9.378;2023-07-29T00:10:41;21.30;99.90
28177;DHT22;15461;41.652;9.378;2023-07-29T00:13:07;21.40;99.90
28177;DHT22;15461;41.652;9.378;2023-07-29T00:15:33;21.40;99.90
28177;DHT22;15461;41.652;9.378;2023-07-29T00:17:59;21.30;99.90
28177;DHT22;15461;41.652;9.378;2023-07-29T00:20:25;21.30;99.90
28177;DHT22;15461;41.652;9.378;2023-07-29T00:22:50;21.30;99.90
28177;DHT22;15461;41.652;9.378;2023-07-29T00:25:19;21.30;99.90
28177;DHT22;15461;41.652;9.378;2023-07-29T00:27:45;21.30;99.90
28177;DHT22;15461;41.652;9.378;2023-07-29T00:30:11;21.30;99.90
28177;DHT22;15461;41.652;9.378;2023-07-29T00:32:37;21.30;99.90
28177;DHT22;15461;41.652;9.378;2023-07-29T00:35:03;21.20;99.90
28177;DHT22;15461;41.652;9.378;2023-07-29T00:37:30;21.30;99.90
28177;DHT22;15461;41.652;9.378;2023-07-29T00:39:56;21.30;99.90
28177;DHT22;15461;41.652;9.378;2023-07-29T00:42:24;21.20;99.90
28177;DHT22;15461;41.652;9.378;2023-07-29T00:44:50;21.20;99.90
28177;DHT22;15461;41.652;9.378;2023-07-29T00:47:16;21.20;99.90
28177;DHT22;15461;41.652;9.378;2023-07-29T00:49:45;21.10;99.90
28177;DHT22;15461;41.652;9.378;2023-07-29T00:52:12;21.00;99.90
28177;DHT22;15461;41.652;9.378;2023-07-29T00:54:42;21.00;99.90
28177;DHT22;15461;41.652;9.378;2023-07-29T00:57:08;21.00;99.90
28177;DHT22;15461;41.652;9.378;2023-07-29T00:59:36;20.90;99.90
28177;DHT22;15461;41.652;9.378;2023-07-29T01:02:02;20.90;99.90
28177;DHT22;15461;41.652;9.378;2023-07-29T01:04:31;20.90;99.90
28177;DHT22;15461;41.652;9.378;2023-07-29T01:12:28;20.70;99.90
28177;DHT22;15461;41.652;9.378;2023-07-29T01:17:47;20.70;99.90
28177;DHT22;15461;41.652;9.378;2023-07-29T01:20:16;20.50;99.90
28177;DHT22;15461;41.652;9.378;2023-07-29T01:22:44;20.50;99.90
28177;DHT22;15461;41.652;9.378;2023-07-29T01:25:10;20.50;99.90
28177;DHT22;15461;41.652;9.378;2023-07-29T01:27:36;20.50;99.90
28177;DHT22;15461;41.652;9.378;2023-07-29T01:30:03;20.40;99.90
28177;DHT22;15461;41.652;9.378;2023-07-29T01:32:38;20.40;99.90
28177;DHT22;15461;41.652;9.378;2023-07-29T01:38:01;20.50;99.90
28177;DHT22;15461;41.652;9.378;2023-07-29T01:40:28;20.50;99.90
28177;DHT22;15461;41.652;9.378;2023-07-29T01:42:56;20.50;99.90
28177;DHT22;15461;41.652;9.378;2023-07-29T01:45:24;20.40;99.90
28177;DHT22;15461;41.652;9.378;2023-07-29T01:47:53;20.30;99.90
28177;DHT22;15461;41.652;9.378;2023-07-29T01:50:19;20.30;99.90
28177;DHT22;15461;41.652;9.378;2023-07-29T01:52:45;20.20;99.90
28177;DHT22;15461;41.652;9.378;2023-07-29T01:55:11;20.10;99.90
28177;DHT22;15461;41.652;9.378;2023-07-29T01:57:37;20.20;99.90
28177;DHT22;15461;41.652;9.378;2023-07-29T02:00:03;20.20;99.90
28177;DHT22;15461;41.652;9.378;2023-07-29T02:02:39;20.20;99.90
28177;DHT22;15461;41.652;9.378;2023-07-29T02:05:05;20.10;99.90
28177;DHT22;15461;41.652;9.378;2023-07-29T02:07:31;20.10;99.90
28177;DHT22;15461;41.652;9.378;2023-07-29T02:09:57;20.10;99.90
28177;DHT22;15461;41.652;9.378;2023-07-29T02:12:24;20.10;99.90
28177;DHT22;15461;41.652;9.378;2023-07-29T02:14:49;20.10;99.90
28177;DHT22;15461;41.652;9.378;2023-07-29T02:17:16;20.00;99.90
28177;DHT22;15461;41.652;9.378;2023-07-29T02:19:42;20.00;99.90
28177;DHT22;15461;41.652;9.378;2023-07-29T02:22:13;19.80;99.90
28177;DHT22;15461;41.652;9.378;2023-07-29T02:24:40;19.80;99.90
28177;DHT22;15461;41.652;9.378;2023-07-29T02:27:06;19.70;99.90
28177;DHT22;15461;41.652;9.378;2023-07-29T02:29:32;19.60;99.90
28177;DHT22;15461;41.652;9.378;2023-07-29T02:32:01;19.70;99.90
28177;DHT22;15461;41.652;9.378;2023-07-29T02:34:27;19.70;99.90
28177;DHT22;15461;41.652;9.378;2023-07-29T02:36:53;19.80;99.90
28177;DHT22;15461;41.652;9.378;2023-07-29T02:39:19;19.80;99.90
28177;DHT22;15461;41.652;9.378;2023-07-29T02:41:45;19.80;99.90
28177;DHT22;15461;41.652;9.378;2023-07-29T02:44:11;19.80;99.90
28177;DHT22;15461;41.652;9.378;2023-07-29T02:46:36;19.70;99.90
28177;DHT22;15461;41.652;9.378;2023-07-29T02:49:03;19.70;99.90
28177;DHT22;15461;41.652;9.378;2023-07-29T02:51:30;19.70;99.90
28177;DHT22;15461;41.652;9.378;2023-07-29T02:53:56;19.80;99.90
28177;DHT22;15461;41.652;9.378;2023-07-29T02:56:22;19.70;99.90
28177;DHT22;15461;41.652;9.378;2023-07-29T02:58:48;19.70;99.90
28177;DHT22;15461;41.652;9.378;2023-07-29T03:01:14;19.80;99.90
28177;DHT22;15461;41.652;9.378;2023-07-29T03:03:40;19.70;99.90
28177;DHT22;15461;41.652;9.378;2023-07-29T03:06:08;19.70;99.90
28177;DHT22;15461;41.652;9.378;2023-07-29T03:08:35;19.70;99.90
28177;DHT22;15461;41.652;9.378;2023-07-29T03:11:12;19.60;99.90
28177;DHT22;15461;41.652;9.378;2023-07-29T03:13:38;19.60;99.90
28177;DHT22;15461;41.652;9.378;2023-07-29T03:16:15;19.60;99.90
28177;DHT22;15461;41.652;9.378;2023-07-29T03:18:48;19.50;99.90
28177;DHT22;15461;41.652;9.378;2023-07-29T03:21:14;19.50;99.90
28177;DHT22;15461;41.652;9.378;2023-07-29T03:23:40;19.50;99.90
28177;DHT22;15461;41.652;9.378;2023-07-29T03:26:07;19.50;99.90
28177;DHT22;15461;41.652;9.378;2023-07-29T03:28:41;19.60;99.90
28177;DHT22;15461;41.652;9.378;2023-07-29T03:31:07;19.60;99.90
28177;DHT22;15461;41.652;9.378;2023-07-29T03:33:33;19.60;99.90
28177;DHT22;15461;41.652;9.378;2023-07-29T03:36:00;19.60;99.90
28177;DHT22;15461;41.652;9.378;2023-07-29T03:38:26;19.50;99.90
28177;DHT22;15461;41.652;9.378;2023-07-29T03:40:53;19.50;99.90
28177;DHT22;15461;41.652;9.378;2023-07-29T03:43:19;19.50;99.90
28177;DHT22;15461;41.652;9.378;2023-07-29T03:45:45;19.50;99.90
28177;DHT22;15461;41.652;9.378;2023-07-29T03:48:11;19.50;99.90
28177;DHT22;15461;41.652;9.378;2023-07-29T03:50:37;19.40;99.90
28177;DHT22;15461;41.652;9.378;2023-07-29T03:53:04;19.40;99.90
28177;DHT22;15461;41.652;9.378;2023-07-29T03:55:31;19.30;99.90
28177;DHT22;15461;41.652;9.378;2023-07-29T03:57:57;19.30;99.90
28177;DHT22;15461;41.652;9.378;2023-07-29T04:00:23;19.30;99.90
28177;DHT22;15461;41.652;9.378;2023-07-29T04:02:49;19.30;99.90
28177;DHT22;15461;41.652;9.378;2023-07-29T04:05:16;19.30;99.90
28177;DHT22;15461;41.652;9.378;2023-07-29T04:07:42;19.30;99.90
28177;DHT22;15461;41.652;9.378;2023-07-29T04:10:09;19.30;99.90
28177;DHT22;15461;41.652;9.378;2023-07-29T04:12:36;19.40;99.90
28177;DHT22;15461;41.652;9.378;2023-07-29T04:15:02;19.40;99.90
28177;DHT22;15461;41.652;9.378;2023-07-29T04:17:28;19.50;99.90
28177;DHT22;15461;41.652;9.378;2023-07-29T04:19:54;19.40;99.90
28177;DHT22;15461;41.652;9.378;2023-07-29T04:22:23;19.40;99.90
28177;DHT22;15461;41.652;9.378;2023-07-29T04:24:48;19.40;99.90
28177;DHT22;15461;41.652;9.378;2023-07-29T04:27:14;19.40;99.90
28177;DHT22;15461;41.652;9.378;2023-07-29T04:29:40;19.30;99.90
28177;DHT22;15461;41.652;9.378;2023-07-29T04:32:06;19.30;99.90
28177;DHT22;15461;41.652;9.378;2023-07-29T04:34:32;19.30;99.90
28177;DHT22;15461;41.652;9.378;2023-07-29T04:36:59;19.30;99.90
28177;DHT22;15461;41.652;9.378;2023-07-29T04:39:25;19.20;99.90
28177;DHT22;15461;41.652;9.378;2023-07-29T04:41:52;19.20;99.90
28177;DHT22;15461;41.652;9.378;2023-07-29T04:44:18;19.20;99.90
28177;DHT22;15461;41.652;9.378;2023-07-29T04:46:44;19.30;99.90
28177;DHT22;15461;41.652;9.378;2023-07-29T04:49:10;19.40;99.90
28177;DHT22;15461;41.652;9.378;2023-07-29T04:51:36;19.40;99.90
28177;DHT22;15461;41.652;9.378;2023-07-29T04:54:03;19.50;99.90
28177;DHT22;15461;41.652;9.378;2023-07-29T04:56:29;19.50;99.90
28177;DHT22;15461;41.652;9.378;2023-07-29T04:58:54;19.60;99.90
28177;DHT22;15461;41.652;9.378;2023-07-29T05:01:20;19.70;99.90
28177;DHT22;15461;41.652;9.378;2023-07-29T05:03:46;19.80;99.90
28177;DHT22;15461;41.652;9.378;2023-07-29T05:06:12;19.80;99.90
28177;DHT22;15461;41.652;9.378;2023-07-29T05:08:38;19.90;99.90
28177;DHT22;15461;41.652;9.378;2023-07-29T05:11:04;20.00;99.90
28177;DHT22;15461;41.652;9.378;2023-07-29T05:13:30;20.00;99.90
28177;DHT22;15461;41.652;9.378;2023-07-29T05:15:56;20.10;99.90
28177;DHT22;15461;41.652;9.378;2023-07-29T05:18:22;20.20;99.90
28177;DHT22;15461;41.652;9.378;2023-07-29T05:20:49;20.30;99.90
28177;DHT22;15461;41.652;9.378;2023-07-29T05:23:15;20.40;99.90
28177;DHT22;15461;41.652;9.378;2023-07-29T05:25:41;20.50;99.90
28177;DHT22;15461;41.652;9.378;2023-07-29T05:28:07;20.60;99.90
28177;DHT22;15461;41.652;9.378;2023-07-29T05:30:33;20.70;99.90
28177;DHT22;15461;41.652;9.378;2023-07-29T05:33:05;20.80;99.90
28177;DHT22;15461;41.652;9.378;2023-07-29T05:35:33;20.90;99.90
28177;DHT22;15461;41.652;9.378;2023-07-29T05:37:59;21.00;99.90
28177;DHT22;15461;41.652;9.378;2023-07-29T05:40:26;21.10;99.90
28177;DHT22;15461;41.652;9.378;2023-07-29T05:42:52;21.30;99.90
28177;DHT22;15461;41.652;9.378;2023-07-29T05:45:18;21.40;99.90
28177;DHT22;15461;41.652;9.378;2023-07-29T05:47:43;21.50;99.90
28177;DHT22;15461;41.652;9.378;2023-07-29T05:50:09;21.70;99.90
28177;DHT22;15461;41.652;9.378;2023-07-29T05:52:36;21.80;99.90
28177;DHT22;15461;41.652;9.378;2023-07-29T05:55:02;22.00;99.90
28177;DHT22;15461;41.652;9.378;2023-07-29T05:57:29;22.10;99.90
28177;DHT22;15461;41.652;9.378;2023-07-29T05:59:55;22.30;99.90
28177;DHT22;15461;41.652;9.378;2023-07-29T06:02:21;22.50;99.90
28177;DHT22;15461;41.652;9.378;2023-07-29T06:04:47;22.70;99.90
28177;DHT22;15461;41.652;9.378;2023-07-29T06:07:13;22.80;99.90
28177;DHT22;15461;41.652;9.378;2023-07-29T06:09:39;23.00;99.90
28177;DHT22;15461;41.652;9.378;2023-07-29T06:12:06;23.10;99.90
28177;DHT22;15461;41.652;9.378;2023-07-29T06:14:32;23.30;99.90
28177;DHT22;15461;41.652;9.378;2023-07-29T06:16:58;23.50;99.90
28177;DHT22;15461;41.652;9.378;2023-07-29T06:19:24;23.70;99.90
28177;DHT22;15461;41.652;9.378;2023-07-29T06:21:50;23.80;99.90
28177;DHT22;15461;41.652;9.378;2023-07-29T06:24:16;24.00;99.90
28177;DHT22;15461;41.652;9.378;2023-07-29T06:26:42;24.20;99.90
28177;DHT22;15461;41.652;9.378;2023-07-29T06:29:08;24.30;99.90
28177;DHT22;15461;41.652;9.378;2023-07-29T06:31:34;24.50;99.90
28177;DHT22;15461;41.652;9.378;2023-07-29T06:33:59;24.60;99.90
28177;DHT22;15461;41.652;9.378;2023-07-29T06:36:25;24.80;99.90
28177;DHT22;15461;41.652;9.378;2023-07-29T06:38:51;24.90;99.90
28177;DHT22;15461;41.652;9.378;2023-07-29T06:41:17;25.10;99.90
28177;DHT22;15461;41.652;9.378;2023-07-29T06:43:43;25.20;99.90
28177;DHT22;15461;41.652;9.378;2023-07-29T06:46:09;25.30;99.90
28177;DHT22;15461;41.652;9.378;2023-07-29T06:48:36;25.50;99.90
28177;DHT22;15461;41.652;9.378;2023-07-29T06:51:03;25.60;99.90
28177;DHT22;15461;41.652;9.378;2023-07-29T06:53:29;25.70;99.90
28177;DHT22;15461;41.652;9.378;2023-07-29T06:55:55;25.70;99.90
28177;DHT22;15461;41.652;9.378;2023-07-29T06:58:21;25.80;99.90
28177;DHT22;15461;41.652;9.378;2023-07-29T07:00:47;25.80;99.90
28177;DHT22;15461;41.652;9.378;2023-07-29T07:03:13;25.90;99.90
28177;DHT22;15461;41.652;9.378;2023-07-29T07:05:39;25.90;99.90
28177;DHT22;15461;41.652;9.378;2023-07-29T07:08:05;26.00;99.90
28177;DHT22;15461;41.652;9.378;2023-07-29T07:10:30;26.10;99.90
28177;DHT22;15461;41.652;9.378;2023-07-29T07:12:57;26.10;99.90
28177;DHT22;15461;41.652;9.378;2023-07-29T07:15:23;26.20;99.90
28177;DHT22;15461;41.652;9.378;2023-07-29T07:17:49;26.30;99.90
28177;DHT22;15461;41.652;9.378;2023-07-29T07:20:15;26.50;99.90
28177;DHT22;15461;41.652;9.378;2023-07-29T07:22:42;26.60;99.90
28177;DHT22;15461;41.652;9.378;2023-07-29T07:25:08;26.60;99.90
28177;DHT22;15461;41.652;9.378;2023-07-29T07:27:33;26.70;99.90
28177;DHT22;15461;41.652;9.378;2023-07-29T07:29:59;26.80;99.90
28177;DHT22;15461;41.652;9.378;2023-07-29T07:32:26;26.90;99.90
28177;DHT22;15461;41.652;9.378;2023-07-29T07:34:52;27.00;99.90
28177;DHT22;15461;41.652;9.378;2023-07-29T07:37:18;27.00;99.90
28177;DHT22;15461;41.652;9.378;2023-07-29T07:39:43;27.10;99.90
28177;DHT22;15461;41.652;9.378;2023-07-29T07:42:09;27.10;99.90
28177;DHT22;15461;41.652;9.378;2023-07-29T07:44:35;27.10;99.90
28177;DHT22;15461;41.652;9.378;2023-07-29T07:47:01;27.00;99.90
28177;DHT22;15461;41.652;9.378;2023-07-29T07:49:27;27.20;99.90
28177;DHT22;15461;41.652;9.378;2023-07-29T07:51:53;27.40;99.90
28177;DHT22;15461;41.652;9.378;2023-07-29T07:54:19;27.50;99.90
28177;DHT22;15461;41.652;9.378;2023-07-29T07:56:45;27.50;99.90
28177;DHT22;15461;41.652;9.378;2023-07-29T07:59:11;27.50;99.90
28177;DHT22;15461;41.652;9.378;2023-07-29T08:01:38;27.50;99.90
28177;DHT22;15461;41.652;9.378;2023-07-29T08:04:04;27.60;99.90
28177;DHT22;15461;41.652;9.378;2023-07-29T08:06:30;27.70;99.90
28177;DHT22;15461;41.652;9.378;2023-07-29T08:08:56;27.80;99.90
28177;DHT22;15461;41.652;9.378;2023-07-29T08:11:23;27.80;99.90
28177;DHT22;15461;41.652;9.378;2023-07-29T08:13:49;27.80;99.90
28177;DHT22;15461;41.652;9.378;2023-07-29T08:16:15;27.90;99.90
28177;DHT22;15461;41.652;9.378;2023-07-29T08:18:40;27.90;99.90
28177;DHT22;15461;41.652;9.378;2023-07-29T08:21:06;27.90;99.90
28177;DHT22;15461;41.652;9.378;2023-07-29T08:23:34;28.10;99.90
28177;DHT22;15461;41.652;9.378;2023-07-29T08:26:03;28.20;99.90
28177;DHT22;15461;41.652;9.378;2023-07-29T08:28:35;28.20;99.90
28177;DHT22;15461;41.652;9.378;2023-07-29T08:31:01;28.20;99.90
28177;DHT22;15461;41.652;9.378;2023-07-29T08:33:28;28.20;99.90
28177;DHT22;15461;41.652;9.378;2023-07-29T08:35:55;28.20;99.90
28177;DHT22;15461;41.652;9.378;2023-07-29T08:38:21;28.30;99.90
28177;DHT22;15461;41.652;9.378;2023-07-29T08:40:55;28.40;99.90
28177;DHT22;15461;41.652;9.378;2023-07-29T08:43:28;28.50;99.90
28177;DHT22;15461;41.652;9.378;2023-07-29T08:45:55;28.50;99.90
28177;DHT22;15461;41.652;9.378;2023-07-29T08:48:30;28.40;99.90
28177;DHT22;15461;41.652;9.378;2023-07-29T08:50:59;28.30;99.90
28177;DHT22;15461;41.652;9.378;2023-07-29T08:53:26;28.30;99.90
28177;DHT22;15461;41.652;9.378;2023-07-29T08:55:53;28.30;99.90
28177;DHT22;15461;41.652;9.378;2023-07-29T08:58:21;28.40;99.90
28177;DHT22;15461;41.652;9.378;2023-07-29T09:00:48;28.40;99.90
28177;DHT22;15461;41.652;9.378;2023-07-29T09:03:15;28.50;99.90
28177;DHT22;15461;41.652;9.378;2023-07-29T09:05:41;28.60;99.90
28177;DHT22;15461;41.652;9.378;2023-07-29T09:08:07;28.50;99.90
28177;DHT22;15461;41.652;9.378;2023-07-29T09:10:37;28.50;99.90
28177;DHT22;15461;41.652;9.378;2023-07-29T09:13:03;28.50;99.90
28177;DHT22;15461;41.652;9.378;2023-07-29T09:15:31;28.50;99.90
28177;DHT22;15461;41.652;9.378;2023-07-29T09:17:58;28.60;99.90
28177;DHT22;15461;41.652;9.378;2023-07-29T09:20:27;28.80;99.90
28177;DHT22;15461;41.652;9.378;2023-07-29T09:22:55;29.10;99.90
28177;DHT22;15461;41.652;9.378;2023-07-29T09:25:29;29.20;99.90
28177;DHT22;15461;41.652;9.378;2023-07-29T09:28:01;29.50;99.90
28177;DHT22;15461;41.652;9.378;2023-07-29T09:30:33;29.70;99.90
28177;DHT22;15461;41.652;9.378;2023-07-29T09:32:59;29.80;99.90
28177;DHT22;15461;41.652;9.378;2023-07-29T09:35:29;29.90;99.90
28177;DHT22;15461;41.652;9.378;2023-07-29T09:37:55;29.90;99.90
28177;DHT22;15461;41.652;9.378;2023-07-29T09:40:21;30.10;99.90
28177;DHT22;15461;41.652;9.378;2023-07-29T09:42:51;30.20;99.90
28177;DHT22;15461;41.652;9.378;2023-07-29T09:45:22;30.40;99.90
28177;DHT22;15461;41.652;9.378;2023-07-29T09:47:49;30.50;99.90
28177;DHT22;15461;41.652;9.378;2023-07-29T09:50:15;30.60;99.90
28177;DHT22;15461;41.652;9.378;2023-07-29T09:52:42;30.60;99.90
28177;DHT22;15461;41.652;9.378;2023-07-29T09:55:12;30.70;99.90
28177;DHT22;15461;41.652;9.378;2023-07-29T09:57:40;30.80;99.90
28177;DHT22;15461;41.652;9.378;2023-07-29T10:00:06;30.80;99.90
28177;DHT22;15461;41.652;9.378;2023-07-29T10:02:43;30.80;99.90
28177;DHT22;15461;41.652;9.378;2023-07-29T10:05:10;30.90;99.90
28177;DHT22;15461;41.652;9.378;2023-07-29T10:07:39;31.00;99.90
28177;DHT22;15461;41.652;9.378;2023-07-29T10:10:07;30.80;99.90
28177;DHT22;15461;41.652;9.378;2023-07-29T10:12:34;30.80;99.90
28177;DHT22;15461;41.652;9.378;2023-07-29T10:15:05;30.90;99.90
28177;DHT22;15461;41.652;9.378;2023-07-29T10:17:34;31.10;99.90
28177;DHT22;15461;41.652;9.378;2023-07-29T10:20:01;31.00;99.90
28177;DHT22;15461;41.652;9.378;2023-07-29T10:22:38;31.20;99.90
28177;DHT22;15461;41.652;9.378;2023-07-29T10:25:18;31.20;99.90
28177;DHT22;15461;41.652;9.378;2023-07-29T10:30:14;31.20;99.90
28177;DHT22;15461;41.652;9.378;2023-07-29T10:32:42;31.40;99.90
28177;DHT22;15461;41.652;9.378;2023-07-29T10:35:20;31.50;99.90
28177;DHT22;15461;41.652;9.378;2023-07-29T10:37:47;31.30;99.90
28177;DHT22;15461;41.652;9.378;2023-07-29T10:40:16;31.20;99.90
28177;DHT22;15461;41.652;9.378;2023-07-29T10:43:06;30.90;99.90
28177;DHT22;15461;41.652;9.378;2023-07-29T10:45:39;30.80;99.90
28177;DHT22;15461;41.652;9.378;2023-07-29T10:51:38;31.00;99.90
28177;DHT22;15461;41.652;9.378;2023-07-29T10:54:11;31.10;99.90
28177;DHT22;15461;41.652;9.378;2023-07-29T10:56:46;31.20;99.90
28177;DHT22;15461;41.652;9.378;2023-07-29T11:01:40;31.20;99.90
28177;DHT22;15461;41.652;9.378;2023-07-29T11:12:36;31.40;99.90
28177;DHT22;15461;41.652;9.378;2023-07-29T11:15:21;31.40;99.90
28177;DHT22;15461;41.652;9.378;2023-07-29T11:18:01;31.30;99.90
28177;DHT22;15461;41.652;9.378;2023-07-29T11:20:29;31.20;99.90
28177;DHT22;15461;41.652;9.378;2023-07-29T11:22:58;31.30;99.90
28177;DHT22;15461;41.652;9.378;2023-07-29T11:25:26;31.30;99.90
28177;DHT22;15461;41.652;9.378;2023-07-29T11:27:53;31.50;99.90
28177;DHT22;15461;41.652;9.378;2023-07-29T11:30:19;31.50;99.90
28177;DHT22;15461;41.652;9.378;2023-07-29T11:32:46;31.60;99.90
28177;DHT22;15461;41.652;9.378;2023-07-29T11:35:16;31.50;99.90
28177;DHT22;15461;41.652;9.378;2023-07-29T11:37:45;31.50;99.90
28177;DHT22;15461;41.652;9.378;2023-07-29T11:40:21;31.50;99.90
28177;DHT22;15461;41.652;9.378;2023-07-29T11:42:49;31.50;99.90
28177;DHT22;15461;41.652;9.378;2023-07-29T11:45:19;31.50;99.90
28177;DHT22;15461;41.652;9.378;2023-07-29T11:47:46;31.50;99.90
28177;DHT22;15461;41.652;9.378;2023-07-29T11:50:13;31.60;99.90
28177;DHT22;15461;41.652;9.378;2023-07-29T11:52:43;31.40;99.90
28177;DHT22;15461;41.652;9.378;2023-07-29T11:55:10;31.50;99.90
28177;DHT22;15461;41.652;9.378;2023-07-29T11:57:37;31.70;99.90
28177;DHT22;15461;41.652;9.378;2023-07-29T12:00:08;31.60;99.90
28177;DHT22;15461;41.652;9.378;2023-07-29T12:02:40;31.50;99.90
28177;DHT22;15461;41.652;9.378;2023-07-29T12:05:08;31.40;99.90
28177;DHT22;15461;41.652;9.378;2023-07-29T12:07:34;31.40;99.90
28177;DHT22;15461;41.652;9.378;2023-07-29T12:10:01;31.50;99.90
28177;DHT22;15461;41.652;9.378;2023-07-29T12:12:29;31.60;99.90
28177;DHT22;15461;41.652;9.378;2023-07-29T12:14:55;31.70;99.90
28177;DHT22;15461;41.652;9.378;2023-07-29T12:17:21;31.60;99.90
28177;DHT22;15461;41.652;9.378;2023-07-29T12:19:47;31.50;99.90
28177;DHT22;15461;41.652;9.378;2023-07-29T12:22:18;31.40;99.90
28177;DHT22;15461;41.652;9.378;2023-07-29T12:24:45;31.50;99.90
28177;DHT22;15461;41.652;9.378;2023-07-29T12:27:14;31.50;99.90
28177;DHT22;15461;41.652;9.378;2023-07-29T12:29:43;31.60;99.90
28177;DHT22;15461;41.652;9.378;2023-07-29T12:32:10;31.70;99.90
28177;DHT22;15461;41.652;9.378;2023-07-29T12:34:37;31.80;99.90
28177;DHT22;15461;41.652;9.378;2023-07-29T12:37:05;31.70;99.90
28177;DHT22;15461;41.652;9.378;2023-07-29T12:39:40;31.60;99.90
28177;DHT22;15461;41.652;9.378;2023-07-29T12:42:07;31.40;99.90
28177;DHT22;15461;41.652;9.378;2023-07-29T12:44:34;31.30;99.90
28177;DHT22;15461;41.652;9.378;2023-07-29T12:47:01;31.40;99.90
28177;DHT22;15461;41.652;9.378;2023-07-29T12:49:29;31.40;99.90
28177;DHT22;15461;41.652;9.378;2023-07-29T12:51:56;31.50;99.90
28177;DHT22;15461;41.652;9.378;2023-07-29T12:54:22;31.50;99.90
28177;DHT22;15461;41.652;9.378;2023-07-29T12:56:48;31.50;99.90
28177;DHT22;15461;41.652;9.378;2023-07-29T12:59:14;31.60;99.90
28177;DHT22;15461;41.652;9.378;2023-07-29T13:01:40;31.60;99.90
28177;DHT22;15461;41.652;9.378;2023-07-29T13:04:06;31.60;99.90
28177;DHT22;15461;41.652;9.378;2023-07-29T13:06:32;31.60;99.90
28177;DHT22;15461;41.652;9.378;2023-07-29T13:08:58;31.70;99.90
28177;DHT22;15461;41.652;9.378;2023-07-29T13:11:24;31.50;99.90
28177;DHT22;15461;41.652;9.378;2023-07-29T13:13:51;31.40;99.90
28177;DHT22;15461;41.652;9.378;2023-07-29T13:16:17;31.50;99.90
28177;DHT22;15461;41.652;9.378;2023-07-29T13:18:43;31.50;99.90
28177;DHT22;15461;41.652;9.378;2023-07-29T13:21:10;31.40;99.90
28177;DHT22;15461;41.652;9.378;2023-07-29T13:23:36;31.10;99.90
28177;DHT22;15461;41.652;9.378;2023-07-29T13:26:02;30.70;99.90
28177;DHT22;15461;41.652;9.378;2023-07-29T13:28:28;30.60;99.90
28177;DHT22;15461;41.652;9.378;2023-07-29T13:30:53;30.70;99.90
28177;DHT22;15461;41.652;9.378;2023-07-29T13:33:20;30.50;99.90
28177;DHT22;15461;41.652;9.378;2023-07-29T13:35:46;30.30;99.90
28177;DHT22;15461;41.652;9.378;2023-07-29T13:38:11;30.40;99.90
28177;DHT22;15461;41.652;9.378;2023-07-29T13:40:37;30.30;99.90
28177;DHT22;15461;41.652;9.378;2023-07-29T13:43:03;30.50;99.90
28177;DHT22;15461;41.652;9.378;2023-07-29T13:45:29;30.50;99.90
28177;DHT22;15461;41.652;9.378;2023-07-29T13:47:55;30.20;99.90
28177;DHT22;15461;41.652;9.378;2023-07-29T13:50:21;30.00;99.90
28177;DHT22;15461;41.652;9.378;2023-07-29T13:52:47;30.20;99.90
28177;DHT22;15461;41.652;9.378;2023-07-29T13:55:14;30.00;99.90
28177;DHT22;15461;41.652;9.378;2023-07-29T13:57:40;30.00;99.90
28177;DHT22;15461;41.652;9.378;2023-07-29T14:00:07;29.90;99.90
28177;DHT22;15461;41.652;9.378;2023-07-29T14:02:39;29.90;99.90
28177;DHT22;15461;41.652;9.378;2023-07-29T14:05:05;30.00;99.90
28177;DHT22;15461;41.652;9.378;2023-07-29T14:07:32;30.20;99.90
28177;DHT22;15461;41.652;9.378;2023-07-29T14:09:58;30.10;99.90
28177;DHT22;15461;41.652;9.378;2023-07-29T14:12:24;30.00;99.90
28177;DHT22;15461;41.652;9.378;2023-07-29T14:14:50;30.20;99.90
28177;DHT22;15461;41.652;9.378;2023-07-29T14:17:16;30.50;99.90
28177;DHT22;15461;41.652;9.378;2023-07-29T14:19:43;30.70;99.90
28177;DHT22;15461;41.652;9.378;2023-07-29T14:22:09;30.90;99.90
28177;DHT22;15461;41.652;9.378;2023-07-29T14:24:35;30.80;99.90
28177;DHT22;15461;41.652;9.378;2023-07-29T14:27:00;30.50;99.90
28177;DHT22;15461;41.652;9.378;2023-07-29T14:29:26;30.50;99.90
28177;DHT22;15461;41.652;9.378;2023-07-29T14:31:52;30.60;99.90
28177;DHT22;15461;41.652;9.378;2023-07-29T14:34:18;30.80;99.90
28177;DHT22;15461;41.652;9.378;2023-07-29T14:36:44;30.90;99.90
28177;DHT22;15461;41.652;9.378;2023-07-29T14:39:10;31.10;99.90
28177;DHT22;15461;41.652;9.378;2023-07-29T14:41:36;30.90;99.90
28177;DHT22;15461;41.652;9.378;2023-07-29T14:44:02;30.30;99.90
28177;DHT22;15461;41.652;9.378;2023-07-29T14:46:27;29.90;99.90
28177;DHT22;15461;41.652;9.378;2023-07-29T14:48:55;29.70;99.90
28177;DHT22;15461;41.652;9.378;2023-07-29T14:51:20;29.80;99.90
28177;DHT22;15461;41.652;9.378;2023-07-29T14:53:47;29.70;99.90
28177;DHT22;15461;41.652;9.378;2023-07-29T14:56:13;29.60;99.90
28177;DHT22;15461;41.652;9.378;2023-07-29T14:58:40;29.60;99.90
28177;DHT22;15461;41.652;9.378;2023-07-29T15:01:06;29.70;99.90
28177;DHT22;15461;41.652;9.378;2023-07-29T15:03:32;29.70;99.90
28177;DHT22;15461;41.652;9.378;2023-07-29T15:05:58;29.60;99.90
28177;DHT22;15461;41.652;9.378;2023-07-29T15:08:25;29.80;99.90
28177;DHT22;15461;41.652;9.378;2023-07-29T15:10:51;29.90;99.90
28177;DHT22;15461;41.652;9.378;2023-07-29T15:13:17;29.80;99.90
28177;DHT22;15461;41.652;9.378;2023-07-29T15:15:43;29.80;99.90
28177;DHT22;15461;41.652;9.378;2023-07-29T15:18:10;29.90;99.90
28177;DHT22;15461;41.652;9.378;2023-07-29T15:20:35;29.90;99.90
28177;DHT22;15461;41.652;9.378;2023-07-29T15:23:01;29.90;99.90
28177;DHT22;15461;41.652;9.378;2023-07-29T15:25:27;29.80;99.90
28177;DHT22;15461;41.652;9.378;2023-07-29T15:27:53;29.60;99.90
28177;DHT22;15461;41.652;9.378;2023-07-29T15:30:19;29.50;99.90
28177;DHT22;15461;41.652;9.378;2023-07-29T15:32:45;29.40;99.90
28177;DHT22;15461;41.652;9.378;2023-07-29T15:35:11;29.30;99.90
28177;DHT22;15461;41.652;9.378;2023-07-29T15:37:38;29.30;99.90
28177;DHT22;15461;41.652;9.378;2023-07-29T15:40:04;29.20;99.90
28177;DHT22;15461;41.652;9.378;2023-07-29T15:42:31;29.20;99.90
28177;DHT22;15461;41.652;9.378;2023-07-29T15:44:57;29.30;99.90
28177;DHT22;15461;41.652;9.378;2023-07-29T15:47:22;29.30;99.90
28177;DHT22;15461;41.652;9.378;2023-07-29T15:49:48;29.20;99.90
28177;DHT22;15461;41.652;9.378;2023-07-29T15:52:14;29.20;99.90
28177;DHT22;15461;41.652;9.378;2023-07-29T15:54:41;29.10;99.90
28177;DHT22;15461;41.652;9.378;2023-07-29T15:57:07;29.10;99.90